РПИ Дашогуз

Руководство

Evgeny Vygornitsky*

Куратор
Инструкторы РПИ
Evgeny Vygornitsky (Supervisor)
Входит в состав
Центральная Азия

Диспетчеры РПИ

Диспетчер Рейтинг Допуски *

Аэропорты РПИ

ICAO Город Название Погода
UTAT Дашогуз Дашогуз UTAT 240900Z 29010KT 240V320 CAVOK 28/07 Q1014 R26/CLRD70 NOSIG